sensor_id;sensor_type;location;lat;lon;timestamp;temperature;humidity
4435;DHT22;46552;52.150;8.428;2022-09-09T00:02:18;17.00;99.90
4435;DHT22;46552;52.150;8.428;2022-09-09T00:04:53;17.10;99.90
4435;DHT22;46552;52.150;8.428;2022-09-09T00:07:38;17.00;99.90
4435;DHT22;46552;52.150;8.428;2022-09-09T00:10:16;17.00;99.90
4435;DHT22;46552;52.150;8.428;2022-09-09T00:12:54;17.00;99.90
4435;DHT22;46552;52.150;8.428;2022-09-09T00:15:27;17.00;99.90
4435;DHT22;46552;52.150;8.428;2022-09-09T00:18:03;17.00;99.90
4435;DHT22;46552;52.150;8.428;2022-09-09T00:20:39;17.00;99.90
4435;DHT22;46552;52.150;8.428;2022-09-09T00:23:12;17.00;99.90
4435;DHT22;46552;52.150;8.428;2022-09-09T00:25:46;17.00;99.90
4435;DHT22;46552;52.150;8.428;2022-09-09T00:28:20;17.00;99.90
4435;DHT22;46552;52.150;8.428;2022-09-09T00:30:49;17.10;99.90
4435;DHT22;46552;52.150;8.428;2022-09-09T00:33:19;17.10;99.90
4435;DHT22;46552;52.150;8.428;2022-09-09T00:35:49;17.20;99.90
4435;DHT22;46552;52.150;8.428;2022-09-09T00:38:21;17.20;99.90
4435;DHT22;46552;52.150;8.428;2022-09-09T00:40:52;17.20;99.90
4435;DHT22;46552;52.150;8.428;2022-09-09T00:43:28;17.20;99.90
4435;DHT22;46552;52.150;8.428;2022-09-09T00:46:23;17.20;99.90
4435;DHT22;46552;52.150;8.428;2022-09-09T00:49:00;17.30;99.90
4435;DHT22;46552;52.150;8.428;2022-09-09T00:51:38;17.20;99.90
4435;DHT22;46552;52.150;8.428;2022-09-09T00:54:32;17.20;99.90
4435;DHT22;46552;52.150;8.428;2022-09-09T00:57:21;17.20;99.90
4435;DHT22;46552;52.150;8.428;2022-09-09T00:59:55;17.10;99.90
4435;DHT22;46552;52.150;8.428;2022-09-09T01:02:28;17.10;99.90
4435;DHT22;46552;52.150;8.428;2022-09-09T01:05:02;17.10;99.90
4435;DHT22;46552;52.150;8.428;2022-09-09T01:07:32;17.10;99.90
4435;DHT22;46552;52.150;8.428;2022-09-09T01:10:01;17.10;99.90
4435;DHT22;46552;52.150;8.428;2022-09-09T01:12:38;17.10;99.90
4435;DHT22;46552;52.150;8.428;2022-09-09T01:15:15;17.10;99.90
4435;DHT22;46552;52.150;8.428;2022-09-09T01:17:56;17.00;99.90
4435;DHT22;46552;52.150;8.428;2022-09-09T01:20:27;17.00;99.90
4435;DHT22;46552;52.150;8.428;2022-09-09T01:26:25;17.00;99.90
4435;DHT22;46552;52.150;8.428;2022-09-09T01:28:52;17.00;99.90
4435;DHT22;46552;52.150;8.428;2022-09-09T01:31:23;17.00;99.90
4435;DHT22;46552;52.150;8.428;2022-09-09T01:33:52;17.00;99.90
4435;DHT22;46552;52.150;8.428;2022-09-09T01:36:25;16.90;99.90
4435;DHT22;46552;52.150;8.428;2022-09-09T01:38:53;16.90;99.90
4435;DHT22;46552;52.150;8.428;2022-09-09T01:41:23;16.90;99.90
4435;DHT22;46552;52.150;8.428;2022-09-09T01:43:50;16.90;99.90
4435;DHT22;46552;52.150;8.428;2022-09-09T01:46:18;16.80;99.90
4435;DHT22;46552;52.150;8.428;2022-09-09T01:48:48;16.80;99.90
4435;DHT22;46552;52.150;8.428;2022-09-09T01:51:17;16.80;99.90
4435;DHT22;46552;52.150;8.428;2022-09-09T01:53:45;16.80;99.90
4435;DHT22;46552;52.150;8.428;2022-09-09T01:56:23;16.80;99.90
4435;DHT22;46552;52.150;8.428;2022-09-09T01:59:05;16.80;99.90
4435;DHT22;46552;52.150;8.428;2022-09-09T02:01:43;16.80;99.90
4435;DHT22;46552;52.150;8.428;2022-09-09T02:04:24;16.80;99.90
4435;DHT22;46552;52.150;8.428;2022-09-09T02:06:55;16.80;99.90
4435;DHT22;46552;52.150;8.428;2022-09-09T02:09:25;16.70;99.90
4435;DHT22;46552;52.150;8.428;2022-09-09T02:11:59;16.70;99.90
4435;DHT22;46552;52.150;8.428;2022-09-09T02:14:30;16.70;99.90
4435;DHT22;46552;52.150;8.428;2022-09-09T02:17:05;16.70;99.90
4435;DHT22;46552;52.150;8.428;2022-09-09T02:19:37;16.70;99.90
4435;DHT22;46552;52.150;8.428;2022-09-09T02:22:05;16.60;99.90
4435;DHT22;46552;52.150;8.428;2022-09-09T02:24:36;16.60;99.90
4435;DHT22;46552;52.150;8.428;2022-09-09T02:27:07;16.60;99.90
4435;DHT22;46552;52.150;8.428;2022-09-09T02:29:40;16.60;99.90
4435;DHT22;46552;52.150;8.428;2022-09-09T02:32:11;16.60;99.90
4435;DHT22;46552;52.150;8.428;2022-09-09T02:34:44;16.60;99.90
4435;DHT22;46552;52.150;8.428;2022-09-09T02:37:13;16.60;99.90
4435;DHT22;46552;52.150;8.428;2022-09-09T02:39:42;16.60;99.90
4435;DHT22;46552;52.150;8.428;2022-09-09T02:42:12;16.70;99.90
4435;DHT22;46552;52.150;8.428;2022-09-09T02:44:40;16.70;99.90
4435;DHT22;46552;52.150;8.428;2022-09-09T02:47:18;16.70;99.90
4435;DHT22;46552;52.150;8.428;2022-09-09T02:49:55;16.70;99.90
4435;DHT22;46552;52.150;8.428;2022-09-09T02:52:32;16.70;99.90
4435;DHT22;46552;52.150;8.428;2022-09-09T02:55:06;16.70;99.90
4435;DHT22;46552;52.150;8.428;2022-09-09T02:57:39;16.70;99.90
4435;DHT22;46552;52.150;8.428;2022-09-09T03:00:08;16.70;99.90
4435;DHT22;46552;52.150;8.428;2022-09-09T03:02:35;16.70;99.90
4435;DHT22;46552;52.150;8.428;2022-09-09T03:05:03;16.70;99.90
4435;DHT22;46552;52.150;8.428;2022-09-09T03:07:30;16.70;99.90
4435;DHT22;46552;52.150;8.428;2022-09-09T03:09:57;16.70;99.90
4435;DHT22;46552;52.150;8.428;2022-09-09T03:12:25;16.70;99.90
4435;DHT22;46552;52.150;8.428;2022-09-09T03:14:53;16.70;99.90
4435;DHT22;46552;52.150;8.428;2022-09-09T03:17:20;16.70;99.90
4435;DHT22;46552;52.150;8.428;2022-09-09T03:19:47;16.60;99.90
4435;DHT22;46552;52.150;8.428;2022-09-09T03:22:15;16.70;99.90
4435;DHT22;46552;52.150;8.428;2022-09-09T03:24:42;16.70;99.90
4435;DHT22;46552;52.150;8.428;2022-09-09T03:27:09;16.70;99.90
4435;DHT22;46552;52.150;8.428;2022-09-09T03:29:36;16.70;99.90
4435;DHT22;46552;52.150;8.428;2022-09-09T03:32:05;16.70;99.90
4435;DHT22;46552;52.150;8.428;2022-09-09T03:34:32;16.70;99.90
4435;DHT22;46552;52.150;8.428;2022-09-09T03:37:00;16.70;99.90
4435;DHT22;46552;52.150;8.428;2022-09-09T03:39:27;16.70;99.90
4435;DHT22;46552;52.150;8.428;2022-09-09T03:41:54;16.60;99.90
4435;DHT22;46552;52.150;8.428;2022-09-09T03:44:22;16.60;99.90
4435;DHT22;46552;52.150;8.428;2022-09-09T03:46:49;16.60;99.90
4435;DHT22;46552;52.150;8.428;2022-09-09T03:49:20;16.60;99.90
4435;DHT22;46552;52.150;8.428;2022-09-09T03:51:48;16.60;99.90
4435;DHT22;46552;52.150;8.428;2022-09-09T03:54:16;16.60;99.90
4435;DHT22;46552;52.150;8.428;2022-09-09T03:56:43;16.60;99.90
4435;DHT22;46552;52.150;8.428;2022-09-09T03:59:11;16.60;99.90
4435;DHT22;46552;52.150;8.428;2022-09-09T04:01:39;16.60;99.90
4435;DHT22;46552;52.150;8.428;2022-09-09T04:04:07;16.60;99.90
4435;DHT22;46552;52.150;8.428;2022-09-09T04:06:36;16.60;99.90
4435;DHT22;46552;52.150;8.428;2022-09-09T04:09:04;16.60;99.90
4435;DHT22;46552;52.150;8.428;2022-09-09T04:11:31;16.60;99.90
4435;DHT22;46552;52.150;8.428;2022-09-09T04:13:58;16.60;99.90
4435;DHT22;46552;52.150;8.428;2022-09-09T04:16:26;16.60;99.90
4435;DHT22;46552;52.150;8.428;2022-09-09T04:18:53;16.60;99.90
4435;DHT22;46552;52.150;8.428;2022-09-09T04:21:21;16.60;99.90
4435;DHT22;46552;52.150;8.428;2022-09-09T04:23:50;16.60;99.90
4435;DHT22;46552;52.150;8.428;2022-09-09T04:26:17;16.60;99.90
4435;DHT22;46552;52.150;8.428;2022-09-09T04:28:45;16.60;99.90
4435;DHT22;46552;52.150;8.428;2022-09-09T04:31:16;16.60;99.90
4435;DHT22;46552;52.150;8.428;2022-09-09T04:33:45;16.50;99.90
4435;DHT22;46552;52.150;8.428;2022-09-09T04:36:13;16.50;99.90
4435;DHT22;46552;52.150;8.428;2022-09-09T04:38:41;16.50;99.90
4435;DHT22;46552;52.150;8.428;2022-09-09T04:41:11;16.50;99.90
4435;DHT22;46552;52.150;8.428;2022-09-09T04:43:39;16.50;99.90
4435;DHT22;46552;52.150;8.428;2022-09-09T04:46:06;16.50;99.90
4435;DHT22;46552;52.150;8.428;2022-09-09T04:48:34;16.60;99.90
4435;DHT22;46552;52.150;8.428;2022-09-09T04:51:04;16.60;99.90
4435;DHT22;46552;52.150;8.428;2022-09-09T04:53:32;16.70;99.90
4435;DHT22;46552;52.150;8.428;2022-09-09T04:56:04;16.70;99.90
4435;DHT22;46552;52.150;8.428;2022-09-09T04:58:35;16.70;99.90
4435;DHT22;46552;52.150;8.428;2022-09-09T05:01:05;16.70;99.90
4435;DHT22;46552;52.150;8.428;2022-09-09T05:03:32;16.70;99.90
4435;DHT22;46552;52.150;8.428;2022-09-09T05:06:07;16.70;99.90
4435;DHT22;46552;52.150;8.428;2022-09-09T05:08:36;16.70;99.90
4435;DHT22;46552;52.150;8.428;2022-09-09T05:11:04;16.70;99.90
4435;DHT22;46552;52.150;8.428;2022-09-09T05:13:32;16.70;99.90
4435;DHT22;46552;52.150;8.428;2022-09-09T05:16:01;16.70;99.90
4435;DHT22;46552;52.150;8.428;2022-09-09T05:18:28;16.80;99.90
4435;DHT22;46552;52.150;8.428;2022-09-09T05:21:00;16.80;99.90
4435;DHT22;46552;52.150;8.428;2022-09-09T05:23:27;16.80;99.90
4435;DHT22;46552;52.150;8.428;2022-09-09T05:25:58;16.80;99.90
4435;DHT22;46552;52.150;8.428;2022-09-09T05:28:25;16.80;99.90
4435;DHT22;46552;52.150;8.428;2022-09-09T05:30:57;16.80;99.90
4435;DHT22;46552;52.150;8.428;2022-09-09T05:33:26;16.80;99.90
4435;DHT22;46552;52.150;8.428;2022-09-09T05:35:57;16.90;99.90
4435;DHT22;46552;52.150;8.428;2022-09-09T05:38:25;17.00;99.90
4435;DHT22;46552;52.150;8.428;2022-09-09T05:40:52;17.00;99.90
4435;DHT22;46552;52.150;8.428;2022-09-09T05:43:20;17.00;99.90
4435;DHT22;46552;52.150;8.428;2022-09-09T05:45:58;17.00;99.90
4435;DHT22;46552;52.150;8.428;2022-09-09T05:48:29;17.10;99.90
4435;DHT22;46552;52.150;8.428;2022-09-09T05:50:58;17.10;99.90
4435;DHT22;46552;52.150;8.428;2022-09-09T05:53:25;17.10;99.90
4435;DHT22;46552;52.150;8.428;2022-09-09T05:55:59;17.10;99.90
4435;DHT22;46552;52.150;8.428;2022-09-09T05:58:27;17.10;99.90
4435;DHT22;46552;52.150;8.428;2022-09-09T06:01:01;17.20;99.90
4435;DHT22;46552;52.150;8.428;2022-09-09T06:03:30;17.20;99.90
4435;DHT22;46552;52.150;8.428;2022-09-09T06:05:58;17.10;99.90
4435;DHT22;46552;52.150;8.428;2022-09-09T06:08:26;17.20;99.90
4435;DHT22;46552;52.150;8.428;2022-09-09T06:10:53;17.20;99.90
4435;DHT22;46552;52.150;8.428;2022-09-09T06:13:28;17.20;99.90
4435;DHT22;46552;52.150;8.428;2022-09-09T06:15:56;17.30;99.90
4435;DHT22;46552;52.150;8.428;2022-09-09T06:18:23;17.30;99.90
4435;DHT22;46552;52.150;8.428;2022-09-09T06:20:57;17.40;99.90
4435;DHT22;46552;52.150;8.428;2022-09-09T06:23:27;17.40;99.90
4435;DHT22;46552;52.150;8.428;2022-09-09T06:26:02;17.50;99.90
4435;DHT22;46552;52.150;8.428;2022-09-09T06:28:29;17.40;99.90
4435;DHT22;46552;52.150;8.428;2022-09-09T06:31:00;17.50;99.90
4435;DHT22;46552;52.150;8.428;2022-09-09T06:33:30;17.50;99.90
4435;DHT22;46552;52.150;8.428;2022-09-09T06:36:02;17.50;99.90
4435;DHT22;46552;52.150;8.428;2022-09-09T06:38:30;17.60;99.90
4435;DHT22;46552;52.150;8.428;2022-09-09T06:40:59;17.60;99.90
4435;DHT22;46552;52.150;8.428;2022-09-09T06:43:27;17.70;99.90
4435;DHT22;46552;52.150;8.428;2022-09-09T06:45:55;17.80;99.90
4435;DHT22;46552;52.150;8.428;2022-09-09T06:48:23;17.90;99.90
4435;DHT22;46552;52.150;8.428;2022-09-09T06:50:51;17.90;99.90
4435;DHT22;46552;52.150;8.428;2022-09-09T06:53:30;18.00;99.90
4435;DHT22;46552;52.150;8.428;2022-09-09T06:55:59;18.10;99.90
4435;DHT22;46552;52.150;8.428;2022-09-09T06:58:27;18.10;99.90
4435;DHT22;46552;52.150;8.428;2022-09-09T07:01:02;18.10;99.90
4435;DHT22;46552;52.150;8.428;2022-09-09T07:03:30;18.10;99.90
4435;DHT22;46552;52.150;8.428;2022-09-09T07:05:57;18.10;99.90
4435;DHT22;46552;52.150;8.428;2022-09-09T07:08:25;18.10;99.90
4435;DHT22;46552;52.150;8.428;2022-09-09T07:10:54;18.10;99.90
4435;DHT22;46552;52.150;8.428;2022-09-09T07:13:28;18.00;99.90
4435;DHT22;46552;52.150;8.428;2022-09-09T07:15:55;18.00;99.90
4435;DHT22;46552;52.150;8.428;2022-09-09T07:18:22;18.00;99.90
4435;DHT22;46552;52.150;8.428;2022-09-09T07:20:58;18.00;99.90
4435;DHT22;46552;52.150;8.428;2022-09-09T07:23:26;18.10;99.90
4435;DHT22;46552;52.150;8.428;2022-09-09T07:25:56;18.10;99.90
4435;DHT22;46552;52.150;8.428;2022-09-09T07:28:23;18.20;99.90
4435;DHT22;46552;52.150;8.428;2022-09-09T07:30:54;18.20;99.90
4435;DHT22;46552;52.150;8.428;2022-09-09T07:33:21;18.30;99.90
4435;DHT22;46552;52.150;8.428;2022-09-09T07:35:50;18.30;99.90
4435;DHT22;46552;52.150;8.428;2022-09-09T07:38:19;18.30;99.90
4435;DHT22;46552;52.150;8.428;2022-09-09T07:40:46;18.40;99.90
4435;DHT22;46552;52.150;8.428;2022-09-09T07:43:15;18.40;99.90
4435;DHT22;46552;52.150;8.428;2022-09-09T07:45:42;18.40;99.90
4435;DHT22;46552;52.150;8.428;2022-09-09T07:48:10;18.50;99.90
4435;DHT22;46552;52.150;8.428;2022-09-09T07:50:37;18.50;99.90
4435;DHT22;46552;52.150;8.428;2022-09-09T07:53:05;18.40;99.90
4435;DHT22;46552;52.150;8.428;2022-09-09T07:55:32;18.50;99.90
4435;DHT22;46552;52.150;8.428;2022-09-09T07:58:01;18.40;99.90
4435;DHT22;46552;52.150;8.428;2022-09-09T08:00:31;18.50;99.90
4435;DHT22;46552;52.150;8.428;2022-09-09T08:02:58;18.50;99.90
4435;DHT22;46552;52.150;8.428;2022-09-09T08:05:27;18.60;99.90
4435;DHT22;46552;52.150;8.428;2022-09-09T08:07:55;18.60;99.90
4435;DHT22;46552;52.150;8.428;2022-09-09T08:10:23;18.70;99.90
4435;DHT22;46552;52.150;8.428;2022-09-09T08:12:50;18.80;99.90
4435;DHT22;46552;52.150;8.428;2022-09-09T08:15:17;18.80;99.90
4435;DHT22;46552;52.150;8.428;2022-09-09T08:17:47;18.80;99.90
4435;DHT22;46552;52.150;8.428;2022-09-09T08:20:15;18.90;99.90
4435;DHT22;46552;52.150;8.428;2022-09-09T08:22:43;19.10;99.90
4435;DHT22;46552;52.150;8.428;2022-09-09T08:25:10;19.30;99.90
4435;DHT22;46552;52.150;8.428;2022-09-09T08:27:38;19.50;99.90
4435;DHT22;46552;52.150;8.428;2022-09-09T08:30:07;19.60;99.90
4435;DHT22;46552;52.150;8.428;2022-09-09T08:32:35;19.80;99.90
4435;DHT22;46552;52.150;8.428;2022-09-09T08:35:04;19.90;99.90
4435;DHT22;46552;52.150;8.428;2022-09-09T08:37:32;20.00;99.90
4435;DHT22;46552;52.150;8.428;2022-09-09T08:39:59;20.30;99.90
4435;DHT22;46552;52.150;8.428;2022-09-09T08:42:35;20.60;99.90
4435;DHT22;46552;52.150;8.428;2022-09-09T08:45:27;21.10;99.90
4435;DHT22;46552;52.150;8.428;2022-09-09T08:48:10;21.40;99.90
4435;DHT22;46552;52.150;8.428;2022-09-09T08:50:41;21.40;99.90
4435;DHT22;46552;52.150;8.428;2022-09-09T08:53:13;21.60;99.90
4435;DHT22;46552;52.150;8.428;2022-09-09T08:55:47;21.80;99.90
4435;DHT22;46552;52.150;8.428;2022-09-09T08:58:18;22.00;99.90
4435;DHT22;46552;52.150;8.428;2022-09-09T09:00:57;22.10;99.30
4435;DHT22;46552;52.150;8.428;2022-09-09T09:03:33;22.00;99.90
4435;DHT22;46552;52.150;8.428;2022-09-09T09:06:19;21.90;99.90
4435;DHT22;46552;52.150;8.428;2022-09-09T09:08:51;21.90;99.90
4435;DHT22;46552;52.150;8.428;2022-09-09T09:11:19;22.10;99.90
4435;DHT22;46552;52.150;8.428;2022-09-09T09:13:52;22.40;99.70
4435;DHT22;46552;52.150;8.428;2022-09-09T09:16:26;22.60;99.20
4435;DHT22;46552;52.150;8.428;2022-09-09T09:18:54;22.50;99.10
4435;DHT22;46552;52.150;8.428;2022-09-09T09:21:31;22.30;99.20
4435;DHT22;46552;52.150;8.428;2022-09-09T09:24:01;22.20;99.00
4435;DHT22;46552;52.150;8.428;2022-09-09T09:26:32;22.20;99.10
4435;DHT22;46552;52.150;8.428;2022-09-09T09:29:03;22.40;98.90
4435;DHT22;46552;52.150;8.428;2022-09-09T09:31:37;22.60;98.50
4435;DHT22;46552;52.150;8.428;2022-09-09T09:34:04;22.60;98.40
4435;DHT22;46552;52.150;8.428;2022-09-09T09:36:41;22.40;98.70
4435;DHT22;46552;52.150;8.428;2022-09-09T09:39:10;22.10;98.20
4435;DHT22;46552;52.150;8.428;2022-09-09T09:41:40;21.90;98.60
4435;DHT22;46552;52.150;8.428;2022-09-09T09:44:23;21.70;98.70
4435;DHT22;46552;52.150;8.428;2022-09-09T09:46:50;21.60;99.00
4435;DHT22;46552;52.150;8.428;2022-09-09T09:49:18;21.80;98.90
4435;DHT22;46552;52.150;8.428;2022-09-09T09:51:47;22.10;98.40
4435;DHT22;46552;52.150;8.428;2022-09-09T09:54:18;22.50;98.00
4435;DHT22;46552;52.150;8.428;2022-09-09T09:56:49;22.70;97.70
4435;DHT22;46552;52.150;8.428;2022-09-09T09:59:32;22.80;97.50
4435;DHT22;46552;52.150;8.428;2022-09-09T10:02:16;22.90;96.50
4435;DHT22;46552;52.150;8.428;2022-09-09T10:04:44;23.20;96.90
4435;DHT22;46552;52.150;8.428;2022-09-09T10:07:19;23.70;96.40
4435;DHT22;46552;52.150;8.428;2022-09-09T10:09:51;24.10;96.10
4435;DHT22;46552;52.150;8.428;2022-09-09T10:12:29;24.20;94.50
4435;DHT22;46552;52.150;8.428;2022-09-09T10:15:02;24.50;94.20
4435;DHT22;46552;52.150;8.428;2022-09-09T10:17:39;24.70;94.30
4435;DHT22;46552;52.150;8.428;2022-09-09T10:20:20;24.60;94.00
4435;DHT22;46552;52.150;8.428;2022-09-09T10:23:02;24.70;93.80
4435;DHT22;46552;52.150;8.428;2022-09-09T10:25:51;24.70;93.30
4435;DHT22;46552;52.150;8.428;2022-09-09T10:28:46;25.00;93.20
4435;DHT22;46552;52.150;8.428;2022-09-09T10:31:22;25.10;92.90
4435;DHT22;46552;52.150;8.428;2022-09-09T10:34:06;25.00;92.80
4435;DHT22;46552;52.150;8.428;2022-09-09T10:36:42;25.10;92.40
4435;DHT22;46552;52.150;8.428;2022-09-09T10:39:25;25.30;92.00
4435;DHT22;46552;52.150;8.428;2022-09-09T10:42:05;25.30;91.70
4435;DHT22;46552;52.150;8.428;2022-09-09T10:44:47;25.10;91.90
4435;DHT22;46552;52.150;8.428;2022-09-09T10:47:34;25.10;91.40
4435;DHT22;46552;52.150;8.428;2022-09-09T10:50:23;25.40;90.70
4435;DHT22;46552;52.150;8.428;2022-09-09T10:53:01;25.80;90.20
4435;DHT22;46552;52.150;8.428;2022-09-09T10:55:37;26.10;88.50
4435;DHT22;46552;52.150;8.428;2022-09-09T10:58:09;26.20;88.90
4435;DHT22;46552;52.150;8.428;2022-09-09T11:00:41;26.40;86.80
4435;DHT22;46552;52.150;8.428;2022-09-09T11:03:14;26.50;87.20
4435;DHT22;46552;52.150;8.428;2022-09-09T11:05:46;26.40;87.20
4435;DHT22;46552;52.150;8.428;2022-09-09T11:08:18;26.20;86.20
4435;DHT22;46552;52.150;8.428;2022-09-09T11:10:53;26.20;86.70
4435;DHT22;46552;52.150;8.428;2022-09-09T11:13:28;26.20;86.20
4435;DHT22;46552;52.150;8.428;2022-09-09T11:16:02;26.10;86.40
4435;DHT22;46552;52.150;8.428;2022-09-09T11:18:35;26.20;85.60
4435;DHT22;46552;52.150;8.428;2022-09-09T11:21:10;26.40;85.80
4435;DHT22;46552;52.150;8.428;2022-09-09T11:23:43;26.40;85.70
4435;DHT22;46552;52.150;8.428;2022-09-09T11:26:18;26.50;85.00
4435;DHT22;46552;52.150;8.428;2022-09-09T11:29:02;26.30;83.60
4435;DHT22;46552;52.150;8.428;2022-09-09T11:31:44;26.00;82.90
4435;DHT22;46552;52.150;8.428;2022-09-09T11:34:37;26.10;83.60
4435;DHT22;46552;52.150;8.428;2022-09-09T11:37:17;26.20;82.90
4435;DHT22;46552;52.150;8.428;2022-09-09T11:40:04;26.20;82.90
4435;DHT22;46552;52.150;8.428;2022-09-09T11:42:37;25.90;84.00
4435;DHT22;46552;52.150;8.428;2022-09-09T11:45:19;26.10;84.60
4435;DHT22;46552;52.150;8.428;2022-09-09T11:48:05;26.20;82.60
4435;DHT22;46552;52.150;8.428;2022-09-09T11:50:58;25.90;82.50
4435;DHT22;46552;52.150;8.428;2022-09-09T11:53:25;25.70;81.30
4435;DHT22;46552;52.150;8.428;2022-09-09T11:56:10;26.00;82.20
4435;DHT22;46552;52.150;8.428;2022-09-09T11:58:42;26.40;82.30
4435;DHT22;46552;52.150;8.428;2022-09-09T12:01:27;26.80;78.80
4435;DHT22;46552;52.150;8.428;2022-09-09T12:04:11;26.70;79.70
4435;DHT22;46552;52.150;8.428;2022-09-09T12:06:44;26.60;79.40
4435;DHT22;46552;52.150;8.428;2022-09-09T12:12:25;25.10;81.20
4435;DHT22;46552;52.150;8.428;2022-09-09T12:15:01;24.60;82.40
4435;DHT22;46552;52.150;8.428;2022-09-09T12:17:30;24.50;83.70
4435;DHT22;46552;52.150;8.428;2022-09-09T12:20:08;24.70;84.20
4435;DHT22;46552;52.150;8.428;2022-09-09T12:25:32;24.60;84.50
4435;DHT22;46552;52.150;8.428;2022-09-09T12:28:06;24.50;84.80
4435;DHT22;46552;52.150;8.428;2022-09-09T12:30:43;24.50;85.10
4435;DHT22;46552;52.150;8.428;2022-09-09T12:33:16;24.40;85.40
4435;DHT22;46552;52.150;8.428;2022-09-09T12:35:45;24.30;85.60
4435;DHT22;46552;52.150;8.428;2022-09-09T12:38:15;24.30;85.70
4435;DHT22;46552;52.150;8.428;2022-09-09T12:40:54;24.20;86.20
4435;DHT22;46552;52.150;8.428;2022-09-09T12:43:23;24.00;89.00
4435;DHT22;46552;52.150;8.428;2022-09-09T12:45:55;23.70;91.80
4435;DHT22;46552;52.150;8.428;2022-09-09T12:48:29;23.20;92.60
4435;DHT22;46552;52.150;8.428;2022-09-09T12:50:57;23.00;94.10
4435;DHT22;46552;52.150;8.428;2022-09-09T12:53:26;23.20;94.50
4435;DHT22;46552;52.150;8.428;2022-09-09T12:55:57;23.30;96.30
4435;DHT22;46552;52.150;8.428;2022-09-09T12:58:26;23.50;96.70
4435;DHT22;46552;52.150;8.428;2022-09-09T13:00:56;24.00;97.70
4435;DHT22;46552;52.150;8.428;2022-09-09T13:03:24;24.20;97.00
4435;DHT22;46552;52.150;8.428;2022-09-09T13:05:52;24.40;96.90
4435;DHT22;46552;52.150;8.428;2022-09-09T13:08:20;24.50;96.60
4435;DHT22;46552;52.150;8.428;2022-09-09T13:10:50;24.40;96.60
4435;DHT22;46552;52.150;8.428;2022-09-09T13:13:22;24.40;96.50
4435;DHT22;46552;52.150;8.428;2022-09-09T13:15:51;24.30;96.90
4435;DHT22;46552;52.150;8.428;2022-09-09T13:18:23;24.30;96.70
4435;DHT22;46552;52.150;8.428;2022-09-09T13:20:51;24.30;96.50
4435;DHT22;46552;52.150;8.428;2022-09-09T13:23:20;24.20;96.70
4435;DHT22;46552;52.150;8.428;2022-09-09T13:25:55;24.20;96.10
4435;DHT22;46552;52.150;8.428;2022-09-09T13:28:25;24.20;96.20
4435;DHT22;46552;52.150;8.428;2022-09-09T13:30:58;24.20;95.80
4435;DHT22;46552;52.150;8.428;2022-09-09T13:33:32;24.20;95.70
4435;DHT22;46552;52.150;8.428;2022-09-09T13:36:02;24.30;95.30
4435;DHT22;46552;52.150;8.428;2022-09-09T13:38:32;24.50;95.50
4435;DHT22;46552;52.150;8.428;2022-09-09T13:41:01;24.60;93.70
4435;DHT22;46552;52.150;8.428;2022-09-09T13:43:31;24.70;93.90
4435;DHT22;46552;52.150;8.428;2022-09-09T13:46:01;24.80;92.90
4435;DHT22;46552;52.150;8.428;2022-09-09T13:48:31;24.90;92.30
4435;DHT22;46552;52.150;8.428;2022-09-09T13:51:00;24.70;91.20
4435;DHT22;46552;52.150;8.428;2022-09-09T13:53:28;24.50;90.80
4435;DHT22;46552;52.150;8.428;2022-09-09T13:55:56;24.30;90.50
4435;DHT22;46552;52.150;8.428;2022-09-09T13:58:24;24.30;90.30
4435;DHT22;46552;52.150;8.428;2022-09-09T14:00:52;23.90;86.60
4435;DHT22;46552;52.150;8.428;2022-09-09T14:03:20;24.00;90.20
4435;DHT22;46552;52.150;8.428;2022-09-09T14:05:51;24.00;88.80
4435;DHT22;46552;52.150;8.428;2022-09-09T14:08:25;23.80;88.20
4435;DHT22;46552;52.150;8.428;2022-09-09T14:10:53;24.00;88.70
4435;DHT22;46552;52.150;8.428;2022-09-09T14:13:25;23.90;88.60
4435;DHT22;46552;52.150;8.428;2022-09-09T14:15:52;24.00;89.40
4435;DHT22;46552;52.150;8.428;2022-09-09T14:18:20;24.20;89.20
4435;DHT22;46552;52.150;8.428;2022-09-09T14:20:48;24.50;86.30
4435;DHT22;46552;52.150;8.428;2022-09-09T14:23:18;24.40;86.80
4435;DHT22;46552;52.150;8.428;2022-09-09T14:25:47;24.40;86.60
4435;DHT22;46552;52.150;8.428;2022-09-09T14:28:15;24.20;86.50
4435;DHT22;46552;52.150;8.428;2022-09-09T14:30:43;24.20;86.90
4435;DHT22;46552;52.150;8.428;2022-09-09T14:33:13;24.00;87.40
4435;DHT22;46552;52.150;8.428;2022-09-09T14:35:43;23.90;86.90
4435;DHT22;46552;52.150;8.428;2022-09-09T14:38:10;23.90;87.40
4435;DHT22;46552;52.150;8.428;2022-09-09T14:40:39;23.80;87.80
4435;DHT22;46552;52.150;8.428;2022-09-09T14:43:06;23.70;88.40
4435;DHT22;46552;52.150;8.428;2022-09-09T14:45:35;23.60;88.80
4435;DHT22;46552;52.150;8.428;2022-09-09T14:48:04;23.40;89.00
4435;DHT22;46552;52.150;8.428;2022-09-09T14:50:31;23.30;89.30
4435;DHT22;46552;52.150;8.428;2022-09-09T14:53:00;23.20;89.60
4435;DHT22;46552;52.150;8.428;2022-09-09T14:55:28;23.10;89.90
4435;DHT22;46552;52.150;8.428;2022-09-09T14:57:56;23.10;89.90
4435;DHT22;46552;52.150;8.428;2022-09-09T15:00:24;23.10;89.00
4435;DHT22;46552;52.150;8.428;2022-09-09T15:02:52;23.10;89.80
4435;DHT22;46552;52.150;8.428;2022-09-09T15:05:20;23.20;89.80
4435;DHT22;46552;52.150;8.428;2022-09-09T15:07:47;23.30;89.60
4435;DHT22;46552;52.150;8.428;2022-09-09T15:10:16;23.40;89.60
4435;DHT22;46552;52.150;8.428;2022-09-09T15:12:43;23.50;89.40
4435;DHT22;46552;52.150;8.428;2022-09-09T15:15:12;23.60;89.10
4435;DHT22;46552;52.150;8.428;2022-09-09T15:17:39;23.60;89.00
4435;DHT22;46552;52.150;8.428;2022-09-09T15:20:08;23.50;88.40
4435;DHT22;46552;52.150;8.428;2022-09-09T15:22:35;23.40;88.00
4435;DHT22;46552;52.150;8.428;2022-09-09T15:25:04;23.30;87.70
4435;DHT22;46552;52.150;8.428;2022-09-09T15:27:31;23.30;87.80
4435;DHT22;46552;52.150;8.428;2022-09-09T15:30:00;23.20;88.10
4435;DHT22;46552;52.150;8.428;2022-09-09T15:32:29;23.20;88.50
4435;DHT22;46552;52.150;8.428;2022-09-09T15:34:58;23.20;88.90
4435;DHT22;46552;52.150;8.428;2022-09-09T15:37:26;23.30;88.90
4435;DHT22;46552;52.150;8.428;2022-09-09T15:39:54;23.50;88.70
4435;DHT22;46552;52.150;8.428;2022-09-09T15:42:21;23.60;88.80
4435;DHT22;46552;52.150;8.428;2022-09-09T15:44:49;23.70;88.40
4435;DHT22;46552;52.150;8.428;2022-09-09T15:47:17;23.60;88.30
4435;DHT22;46552;52.150;8.428;2022-09-09T15:49:46;23.60;88.50
4435;DHT22;46552;52.150;8.428;2022-09-09T15:52:13;23.50;88.60
4435;DHT22;46552;52.150;8.428;2022-09-09T15:54:40;23.40;88.50
4435;DHT22;46552;52.150;8.428;2022-09-09T15:57:11;23.40;88.60
4435;DHT22;46552;52.150;8.428;2022-09-09T15:59:39;23.20;89.10
4435;DHT22;46552;52.150;8.428;2022-09-09T16:02:07;23.20;89.70
4435;DHT22;46552;52.150;8.428;2022-09-09T16:04:34;23.10;89.70
4435;DHT22;46552;52.150;8.428;2022-09-09T16:07:05;23.00;89.80
4435;DHT22;46552;52.150;8.428;2022-09-09T16:09:33;22.90;90.00
4435;DHT22;46552;52.150;8.428;2022-09-09T16:12:03;22.80;90.10
4435;DHT22;46552;52.150;8.428;2022-09-09T16:14:32;22.70;90.20
4435;DHT22;46552;52.150;8.428;2022-09-09T16:17:01;22.60;90.30
4435;DHT22;46552;52.150;8.428;2022-09-09T16:19:28;22.50;90.40
4435;DHT22;46552;52.150;8.428;2022-09-09T16:21:56;22.40;90.50